createdAt,value
2018-02-07T00:00:10.492Z,957.55
2018-02-07T00:01:10.456Z,957.56
2018-02-07T00:02:10.446Z,957.57
2018-02-07T00:03:10.467Z,957.58
2018-02-07T00:04:10.424Z,957.61
2018-02-07T00:05:10.421Z,957.65
2018-02-07T00:06:10.398Z,957.61
2018-02-07T00:07:10.385Z,957.65
2018-02-07T00:08:10.378Z,957.59
2018-02-07T00:09:10.360Z,957.59
2018-02-07T00:10:10.350Z,957.57
2018-02-07T00:11:10.340Z,957.59
2018-02-07T00:12:10.324Z,957.58
2018-02-07T00:13:10.319Z,957.62
2018-02-07T00:14:10.300Z,957.63
2018-02-07T00:15:10.300Z,957.63
2018-02-07T00:16:10.279Z,957.65
2018-02-07T00:17:10.262Z,957.60
2018-02-07T00:18:10.254Z,957.60
2018-02-07T00:19:10.267Z,957.57
2018-02-07T00:20:10.225Z,957.58
2018-02-07T00:21:10.211Z,957.55
2018-02-07T00:22:10.230Z,957.63
2018-02-07T00:23:10.216Z,957.63
2018-02-07T00:24:12.172Z,957.60
2018-02-07T00:25:10.164Z,957.65
2018-02-07T00:26:10.154Z,957.62
2018-02-07T00:27:10.150Z,957.63
2018-02-07T00:28:10.129Z,957.61
2018-02-07T00:29:10.117Z,957.57
2018-02-07T00:30:10.103Z,957.61
2018-02-07T00:31:10.094Z,957.53
2018-02-07T00:32:10.076Z,957.57
2018-02-07T00:33:10.065Z,957.53
2018-02-07T00:34:10.056Z,957.50
2018-02-07T00:35:10.073Z,957.51
2018-02-07T00:36:10.027Z,957.49
2018-02-07T00:37:10.011Z,957.49
2018-02-07T00:38:10.009Z,957.49
2018-02-07T00:39:09.994Z,957.51
2018-02-07T00:40:09.978Z,957.53
2018-02-07T00:41:09.965Z,957.51
2018-02-07T00:42:09.958Z,957.46
2018-02-07T00:43:09.956Z,957.51
2018-02-07T00:44:09.951Z,957.45
2018-02-07T00:45:09.913Z,957.48
2018-02-07T00:46:09.903Z,957.43
2018-02-07T00:47:09.891Z,957.41
2018-02-07T00:48:09.880Z,957.44
2018-02-07T00:49:09.865Z,957.44
2018-02-07T00:50:09.851Z,957.42
2018-02-07T00:51:09.840Z,957.40
2018-02-07T00:52:09.827Z,957.41
2018-02-07T00:53:09.816Z,957.44
2018-02-07T00:54:09.802Z,957.44
2018-02-07T00:55:09.797Z,957.47
2018-02-07T00:56:09.777Z,957.41
2018-02-07T00:57:09.769Z,957.44
2018-02-07T00:58:09.753Z,957.44
2018-02-07T00:59:09.742Z,957.41
2018-02-07T01:00:09.725Z,957.40
2018-02-07T01:01:09.715Z,957.38
2018-02-07T01:02:09.706Z,957.40
2018-02-07T01:03:09.690Z,957.41
2018-02-07T01:04:09.681Z,957.40
2018-02-07T01:05:09.669Z,957.34
2018-02-07T01:06:09.650Z,957.36
2018-02-07T01:07:09.643Z,957.37
2018-02-07T01:08:09.630Z,957.37
2018-02-07T01:09:09.613Z,957.38
2018-02-07T01:10:09.602Z,957.38
2018-02-07T01:11:09.591Z,957.40
2018-02-07T01:12:09.575Z,957.38
2018-02-07T01:13:09.564Z,957.37
2018-02-07T01:14:09.557Z,957.36
2018-02-07T01:15:09.564Z,957.39
2018-02-07T01:16:09.529Z,957.38
2018-02-07T01:17:09.514Z,957.39
2018-02-07T01:18:09.502Z,957.37
2018-02-07T01:19:09.492Z,957.39
2018-02-07T01:20:09.475Z,957.42
2018-02-07T01:21:09.466Z,957.33
2018-02-07T01:22:09.451Z,957.32
2018-02-07T01:23:09.439Z,957.35
2018-02-07T01:24:09.427Z,957.24
2018-02-07T01:25:09.415Z,957.31
2018-02-07T01:26:09.396Z,957.31
2018-02-07T01:27:09.406Z,957.32
2018-02-07T01:28:09.379Z,957.32
2018-02-07T01:29:09.358Z,957.35
2018-02-07T01:30:09.350Z,957.32
2018-02-07T01:31:09.340Z,957.34
2018-02-07T01:32:09.349Z,957.33
2018-02-07T01:33:09.342Z,957.37
2018-02-07T01:34:09.296Z,957.36
2018-02-07T01:35:09.289Z,957.33
2018-02-07T01:36:09.278Z,957.30
2018-02-07T01:37:09.259Z,957.35
2018-02-07T01:38:09.246Z,957.32
2018-02-07T01:39:09.235Z,957.31
2018-02-07T01:40:09.218Z,957.37
2018-02-07T01:41:09.202Z,957.33
2018-02-07T01:42:09.196Z,957.37
2018-02-07T01:43:09.178Z,957.36
2018-02-07T01:44:09.180Z,957.35
2018-02-07T01:45:09.154Z,957.36
2018-02-07T01:46:09.142Z,957.36
2018-02-07T01:47:09.138Z,957.34
2018-02-07T01:48:09.113Z,957.33
2018-02-07T01:49:09.098Z,957.35
2018-02-07T01:50:09.084Z,957.36
2018-02-07T01:51:09.072Z,957.31
2018-02-07T01:52:09.062Z,957.30
2018-02-07T01:53:09.047Z,957.31
2018-02-07T01:54:09.033Z,957.33
2018-02-07T01:55:09.021Z,957.30
2018-02-07T01:56:09.012Z,957.26
2018-02-07T01:57:09.011Z,957.27
2018-02-07T01:58:08.981Z,957.26
2018-02-07T01:59:08.974Z,957.25
2018-02-07T02:00:08.957Z,957.28
2018-02-07T02:01:08.944Z,957.28
2018-02-07T02:02:08.932Z,957.22
2018-02-07T02:03:08.915Z,957.25
2018-02-07T02:04:08.919Z,957.19
2018-02-07T02:05:08.893Z,957.25
2018-02-07T02:06:08.882Z,957.23
2018-02-07T02:07:08.869Z,957.25
2018-02-07T02:08:08.850Z,957.24
2018-02-07T02:09:08.838Z,957.27
2018-02-07T02:10:08.834Z,957.21
2018-02-07T02:11:08.814Z,957.20
2018-02-07T02:12:08.795Z,957.23
2018-02-07T02:13:08.792Z,957.22
2018-02-07T02:14:08.770Z,957.25
2018-02-07T02:15:08.762Z,957.28
2018-02-07T02:16:08.750Z,957.29
2018-02-07T02:17:08.748Z,957.26
2018-02-07T02:18:08.717Z,957.25
2018-02-07T02:19:08.705Z,957.24
2018-02-07T02:20:08.692Z,957.24
2018-02-07T02:21:08.682Z,957.25
2018-02-07T02:22:08.664Z,957.26
2018-02-07T02:23:08.649Z,957.25
2018-02-07T02:24:08.638Z,957.26
2018-02-07T02:25:08.625Z,957.26
2018-02-07T02:26:08.614Z,957.23
2018-02-07T02:27:08.618Z,957.19
2018-02-07T02:28:08.607Z,957.21
2018-02-07T02:29:08.605Z,957.22
2018-02-07T02:30:08.559Z,957.22
2018-02-07T02:31:08.547Z,957.20
2018-02-07T02:32:08.531Z,957.21
2018-02-07T02:33:08.518Z,957.23
2018-02-07T02:34:08.502Z,957.21
2018-02-07T02:35:08.492Z,957.17
2018-02-07T02:36:08.478Z,957.13
2018-02-07T02:37:08.464Z,957.18
2018-02-07T02:38:08.451Z,957.13
2018-02-07T02:39:08.438Z,957.18
2018-02-07T02:40:08.425Z,957.14
2018-02-07T02:41:08.409Z,957.14
2018-02-07T02:42:08.398Z,957.14
2018-02-07T02:43:08.383Z,957.15
2018-02-07T02:44:08.372Z,957.13
2018-02-07T02:45:08.358Z,957.12
2018-02-07T02:46:08.343Z,957.14
2018-02-07T02:47:08.335Z,957.12
2018-02-07T02:48:08.318Z,957.08
2018-02-07T02:49:08.303Z,957.08
2018-02-07T02:50:08.294Z,957.11
2018-02-07T02:51:08.276Z,957.06
2018-02-07T02:52:08.262Z,957.08
2018-02-07T02:53:08.249Z,957.04
2018-02-07T02:54:08.239Z,957.05
2018-02-07T02:55:08.226Z,957.10
2018-02-07T02:56:08.209Z,957.09
2018-02-07T02:57:08.197Z,957.10
2018-02-07T02:58:08.189Z,957.05
2018-02-07T02:59:08.170Z,957.10
2018-02-07T03:00:08.153Z,957.10
2018-02-07T03:01:08.140Z,957.09
2018-02-07T03:02:08.129Z,957.06
2018-02-07T03:03:08.113Z,957.04
2018-02-07T03:04:08.104Z,957.05
2018-02-07T03:05:08.083Z,957.07
2018-02-07T03:06:08.072Z,957.07
2018-02-07T03:07:08.065Z,957.05
2018-02-07T03:08:08.044Z,957.09
2018-02-07T03:09:08.034Z,957.07
2018-02-07T03:10:08.020Z,957.05
2018-02-07T03:11:08.002Z,957.01
2018-02-07T03:12:07.990Z,957.02
2018-02-07T03:13:07.986Z,957.05
2018-02-07T03:14:07.968Z,957.00
2018-02-07T03:15:07.950Z,957.01
2018-02-07T03:16:07.934Z,956.99
2018-02-07T03:17:07.922Z,957.01
2018-02-07T03:18:07.909Z,957.03
2018-02-07T03:19:07.895Z,957.01
2018-02-07T03:20:07.881Z,956.99
2018-02-07T03:21:07.869Z,957.02
2018-02-07T03:22:07.854Z,957.04
2018-02-07T03:23:07.844Z,957.01
2018-02-07T03:24:07.829Z,957.02
2018-02-07T03:25:07.812Z,957.01
2018-02-07T03:26:07.800Z,956.99
2018-02-07T03:27:07.785Z,957.08
2018-02-07T03:28:07.771Z,957.09
2018-02-07T03:29:07.760Z,957.07
2018-02-07T03:30:07.748Z,957.07
2018-02-07T03:31:07.730Z,957.11
2018-02-07T03:32:07.714Z,957.10
2018-02-07T03:33:07.713Z,957.12
2018-02-07T03:34:07.692Z,957.13
2018-02-07T03:35:07.676Z,957.16
2018-02-07T03:36:07.662Z,957.16
2018-02-07T03:37:07.647Z,957.16
2018-02-07T03:38:07.637Z,957.20
2018-02-07T03:39:07.620Z,957.14
2018-02-07T03:40:07.606Z,957.14
2018-02-07T03:41:07.593Z,957.13
2018-02-07T03:42:07.579Z,957.12
2018-02-07T03:43:07.565Z,957.20
2018-02-07T03:44:07.568Z,957.22
2018-02-07T03:45:07.540Z,957.22
2018-02-07T03:46:07.527Z,957.22
2018-02-07T03:47:07.510Z,957.27
2018-02-07T03:48:07.511Z,957.25
2018-02-07T03:49:07.505Z,957.24
2018-02-07T03:50:07.467Z,957.24
2018-02-07T03:51:07.457Z,957.25
2018-02-07T03:52:07.439Z,957.26
2018-02-07T03:53:07.444Z,957.20
2018-02-07T03:54:07.414Z,957.19
2018-02-07T03:55:07.430Z,957.18
2018-02-07T03:56:07.381Z,957.23
2018-02-07T03:57:07.370Z,957.21
2018-02-07T03:58:07.356Z,957.27
2018-02-07T03:59:07.340Z,957.24
2018-02-07T04:00:07.329Z,957.22
2018-02-07T04:01:07.316Z,957.24
2018-02-07T04:02:07.316Z,957.21
2018-02-07T04:03:07.288Z,957.23
2018-02-07T04:04:07.273Z,957.25
2018-02-07T04:05:07.279Z,957.27
2018-02-07T04:06:07.244Z,957.28
2018-02-07T04:07:07.252Z,957.25
2018-02-07T04:08:07.216Z,957.28
2018-02-07T04:09:07.204Z,957.27
2018-02-07T04:10:07.189Z,957.32
2018-02-07T04:11:07.177Z,957.27
2018-02-07T04:12:07.165Z,957.33
2018-02-07T04:13:07.160Z,957.28
2018-02-07T04:14:07.157Z,957.27
2018-02-07T04:15:07.121Z,957.31
2018-02-07T04:16:07.110Z,957.30
2018-02-07T04:17:07.102Z,957.31
2018-02-07T04:18:07.079Z,957.29
2018-02-07T04:19:07.067Z,957.32
2018-02-07T04:20:07.055Z,957.32
2018-02-07T04:21:07.038Z,957.33
2018-02-07T04:22:07.026Z,957.34
2018-02-07T04:23:07.008Z,957.36
2018-02-07T04:24:06.997Z,957.37
2018-02-07T04:25:06.983Z,957.41
2018-02-07T04:26:06.967Z,957.41
2018-02-07T04:27:06.951Z,957.45
2018-02-07T04:28:06.938Z,957.44
2018-02-07T04:29:06.923Z,957.42
2018-02-07T04:30:06.910Z,957.48
2018-02-07T04:31:06.895Z,957.49
2018-02-07T04:32:06.881Z,957.49
2018-02-07T04:33:06.868Z,957.46
2018-02-07T04:34:06.864Z,957.48
2018-02-07T04:35:06.845Z,957.49
2018-02-07T04:36:06.825Z,957.49
2018-02-07T04:37:06.812Z,957.46
2018-02-07T04:38:06.797Z,957.48
2018-02-07T04:39:06.783Z,957.49
2018-02-07T04:40:06.769Z,957.50
2018-02-07T04:41:06.762Z,957.46
2018-02-07T04:42:06.742Z,957.48
2018-02-07T04:43:06.728Z,957.48
2018-02-07T04:44:06.713Z,957.46
2018-02-07T04:45:06.699Z,957.45
2018-02-07T04:46:06.713Z,957.38
2018-02-07T04:47:06.672Z,957.43
2018-02-07T04:48:06.659Z,957.36
2018-02-07T04:49:06.644Z,957.33
2018-02-07T04:50:06.630Z,957.36
2018-02-07T04:51:06.614Z,957.35
2018-02-07T04:52:06.600Z,957.38
2018-02-07T04:53:06.609Z,957.39
2018-02-07T04:54:06.568Z,957.37
2018-02-07T04:55:06.556Z,957.40
2018-02-07T04:56:06.543Z,957.40
2018-02-07T04:57:06.528Z,957.40
2018-02-07T04:58:06.516Z,957.45
2018-02-07T04:59:06.502Z,957.39
2018-02-07T05:00:06.486Z,957.41
2018-02-07T05:01:06.476Z,957.42
2018-02-07T05:02:06.461Z,957.42
2018-02-07T05:03:06.459Z,957.39
2018-02-07T05:04:06.430Z,957.42
2018-02-07T05:05:06.416Z,957.36
2018-02-07T05:06:06.401Z,957.34
2018-02-07T05:07:06.387Z,957.36
2018-02-07T05:08:06.373Z,957.31
2018-02-07T05:09:06.358Z,957.37
2018-02-07T05:10:06.354Z,957.34
2018-02-07T05:11:06.331Z,957.30
2018-02-07T05:12:06.317Z,957.30
2018-02-07T05:13:06.300Z,957.30
2018-02-07T05:14:06.288Z,957.28
2018-02-07T05:15:06.276Z,957.27
2018-02-07T05:16:06.260Z,957.32
2018-02-07T05:17:06.248Z,957.28
2018-02-07T05:18:06.234Z,957.30
2018-02-07T05:19:06.217Z,957.27
2018-02-07T05:20:06.204Z,957.29
2018-02-07T05:21:06.217Z,957.33
2018-02-07T05:22:06.175Z,957.26
2018-02-07T05:23:06.160Z,957.29
2018-02-07T05:24:06.145Z,957.29
2018-02-07T05:25:06.131Z,957.25
2018-02-07T05:26:06.116Z,957.29
2018-02-07T05:27:06.106Z,957.31
2018-02-07T05:28:06.088Z,957.26
2018-02-07T05:29:06.085Z,957.26
2018-02-07T05:30:06.061Z,957.21
2018-02-07T05:31:06.048Z,957.25
2018-02-07T05:32:06.038Z,957.25
2018-02-07T05:33:06.020Z,957.25
2018-02-07T05:34:06.004Z,957.27
2018-02-07T05:35:05.994Z,957.23
2018-02-07T05:36:05.976Z,957.23
2018-02-07T05:37:05.962Z,957.23
2018-02-07T05:38:05.948Z,957.22
2018-02-07T05:39:05.934Z,957.23
2018-02-07T05:40:05.919Z,957.31
2018-02-07T05:41:05.903Z,957.31
2018-02-07T05:42:05.922Z,957.34
2018-02-07T05:43:05.878Z,957.39
2018-02-07T05:44:05.862Z,957.34
2018-02-07T05:45:05.851Z,957.36
2018-02-07T05:46:05.837Z,957.39
2018-02-07T05:47:05.824Z,957.40
2018-02-07T05:48:05.810Z,957.38
2018-02-07T05:49:05.793Z,957.38
2018-02-07T05:50:05.779Z,957.38
2018-02-07T05:51:05.768Z,957.47
2018-02-07T05:52:05.752Z,957.47
2018-02-07T05:53:05.735Z,957.45
2018-02-07T05:54:05.722Z,957.53
2018-02-07T05:55:05.708Z,957.52
2018-02-07T05:56:05.697Z,957.48
2018-02-07T05:57:05.679Z,957.50
2018-02-07T05:58:05.665Z,957.49
2018-02-07T05:59:05.650Z,957.47
2018-02-07T06:00:05.635Z,957.47
2018-02-07T06:01:05.624Z,957.47
2018-02-07T06:02:05.608Z,957.47
2018-02-07T06:03:05.594Z,957.49
2018-02-07T06:04:05.584Z,957.49
2018-02-07T06:05:05.564Z,957.51
2018-02-07T06:06:05.557Z,957.51
2018-02-07T06:07:05.538Z,957.48
2018-02-07T06:08:05.522Z,957.53
2018-02-07T06:09:05.509Z,957.52
2018-02-07T06:10:05.496Z,957.54
2018-02-07T06:11:05.482Z,957.54
2018-02-07T06:12:05.466Z,957.60
2018-02-07T06:13:05.452Z,957.59
2018-02-07T06:14:05.438Z,957.64
2018-02-07T06:15:05.425Z,957.62
2018-02-07T06:16:05.408Z,957.61
2018-02-07T06:17:05.394Z,957.64
2018-02-07T06:18:05.378Z,957.68
2018-02-07T06:19:05.367Z,957.64
2018-02-07T06:20:05.351Z,957.66
2018-02-07T06:21:05.337Z,957.67
2018-02-07T06:22:05.325Z,957.68
2018-02-07T06:23:05.319Z,957.62
2018-02-07T06:24:05.294Z,957.66
2018-02-07T06:25:05.280Z,957.64
2018-02-07T06:26:05.267Z,957.63
2018-02-07T06:27:05.251Z,957.64
2018-02-07T06:28:05.254Z,957.62
2018-02-07T06:29:05.224Z,957.57
2018-02-07T06:30:05.207Z,957.63
2018-02-07T06:31:05.196Z,957.63
2018-02-07T06:32:05.181Z,957.63
2018-02-07T06:33:05.162Z,957.67
2018-02-07T06:34:05.151Z,957.69
2018-02-07T06:35:05.134Z,957.65
2018-02-07T06:36:05.119Z,957.66
2018-02-07T06:37:05.107Z,957.67
2018-02-07T06:38:05.094Z,957.68
2018-02-07T06:39:05.093Z,957.70
2018-02-07T06:40:05.066Z,957.71
2018-02-07T06:41:05.056Z,957.67
2018-02-07T06:42:05.033Z,957.67
2018-02-07T06:43:05.022Z,957.66
2018-02-07T06:44:05.005Z,957.65
2018-02-07T06:45:04.991Z,957.66
2018-02-07T06:46:04.980Z,957.63
2018-02-07T06:47:04.959Z,957.61
2018-02-07T06:48:04.945Z,957.66
2018-02-07T06:49:04.932Z,957.67
2018-02-07T06:50:04.924Z,957.71
2018-02-07T06:51:04.903Z,957.70
2018-02-07T06:52:04.892Z,957.71
2018-02-07T06:53:04.877Z,957.72
2018-02-07T06:54:04.860Z,957.71
2018-02-07T06:55:04.847Z,957.70
2018-02-07T06:56:04.921Z,957.72
2018-02-07T06:57:04.818Z,957.74
2018-02-07T06:58:04.803Z,957.76
2018-02-07T06:59:04.791Z,957.79
2018-02-07T07:00:04.776Z,957.82
2018-02-07T07:01:04.763Z,957.85
2018-02-07T07:02:04.753Z,957.86
2018-02-07T07:03:04.755Z,957.88
2018-02-07T07:04:04.721Z,957.89
2018-02-07T07:05:04.704Z,957.89
2018-02-07T07:06:04.690Z,957.85
2018-02-07T07:07:04.682Z,957.82
2018-02-07T07:08:04.663Z,957.79
2018-02-07T07:09:04.648Z,957.80
2018-02-07T07:10:04.634Z,957.85
2018-02-07T07:11:04.620Z,957.86
2018-02-07T07:12:04.606Z,957.90
2018-02-07T07:13:04.609Z,957.87
2018-02-07T07:14:04.588Z,957.93
2018-02-07T07:15:04.561Z,957.89
2018-02-07T07:16:04.551Z,957.92
2018-02-07T07:17:04.539Z,957.89
2018-02-07T07:18:04.521Z,957.91
2018-02-07T07:19:04.510Z,957.92
2018-02-07T07:20:04.493Z,957.91
2018-02-07T07:21:04.481Z,957.91
2018-02-07T07:22:04.466Z,957.93
2018-02-07T07:23:04.452Z,957.93
2018-02-07T07:24:04.438Z,957.95
2018-02-07T07:25:04.425Z,957.93
2018-02-07T07:26:04.411Z,957.90
2018-02-07T07:27:04.398Z,957.96
2018-02-07T07:28:04.384Z,957.94
2018-02-07T07:29:04.385Z,957.96
2018-02-07T07:30:04.358Z,957.93
2018-02-07T07:31:04.345Z,957.94
2018-02-07T07:32:04.329Z,957.98
2018-02-07T07:33:04.317Z,957.96
2018-02-07T07:34:04.303Z,957.99
2018-02-07T07:35:04.288Z,958.01
2018-02-07T07:36:04.280Z,957.95
2018-02-07T07:37:04.261Z,957.96
2018-02-07T07:38:04.253Z,958.00
2018-02-07T07:39:04.237Z,958.02
2018-02-07T07:40:04.224Z,958.02
2018-02-07T07:41:04.208Z,958.02
2018-02-07T07:42:04.195Z,958.01
2018-02-07T07:43:04.183Z,957.99
2018-02-07T07:44:04.169Z,957.98
2018-02-07T07:45:04.156Z,957.96
2018-02-07T07:46:04.143Z,957.97
2018-02-07T07:47:04.130Z,957.99
2018-02-07T07:48:04.213Z,957.99
2018-02-07T07:49:04.104Z,957.93
2018-02-07T07:50:04.090Z,957.97
2018-02-07T07:51:04.078Z,958.06
2018-02-07T07:52:04.069Z,958.02
2018-02-07T07:53:04.053Z,957.98
2018-02-07T07:54:04.039Z,958.03
2018-02-07T07:55:04.025Z,957.97
2018-02-07T07:56:04.013Z,957.98
2018-02-07T07:57:04.000Z,957.96
2018-02-07T07:58:03.985Z,957.99
2018-02-07T07:59:04.001Z,958.04
2018-02-07T08:00:03.959Z,958.02
2018-02-07T08:01:03.955Z,958.04
2018-02-07T08:02:03.936Z,958.07
2018-02-07T08:03:03.943Z,958.08
2018-02-07T08:04:03.910Z,958.11
2018-02-07T08:05:03.903Z,958.08
2018-02-07T08:06:03.886Z,958.10
2018-02-07T08:07:03.876Z,958.09
2018-02-07T08:08:03.860Z,958.10
2018-02-07T08:09:03.845Z,958.14
2018-02-07T08:10:03.832Z,958.20
2018-02-07T08:11:03.823Z,958.17
2018-02-07T08:12:03.814Z,958.18
2018-02-07T08:13:03.804Z,958.22
2018-02-07T08:14:03.785Z,958.28
2018-02-07T08:15:03.769Z,958.25
2018-02-07T08:16:03.757Z,958.32
2018-02-07T08:17:03.744Z,958.32
2018-02-07T08:18:03.734Z,958.32
2018-02-07T08:19:03.722Z,958.32
2018-02-07T08:20:03.714Z,958.36
2018-02-07T08:21:03.705Z,958.35
2018-02-07T08:22:03.682Z,958.33
2018-02-07T08:23:03.670Z,958.39
2018-02-07T08:24:03.656Z,958.39
2018-02-07T08:25:03.648Z,958.46
2018-02-07T08:26:03.634Z,958.46
2018-02-07T08:27:03.625Z,958.45
2018-02-07T08:28:03.611Z,958.50
2018-02-07T08:29:03.600Z,958.49
2018-02-07T08:30:03.590Z,958.50
2018-02-07T08:31:03.594Z,958.55
2018-02-07T08:32:03.565Z,958.56
2018-02-07T08:33:03.553Z,958.60
2018-02-07T08:34:03.541Z,958.60
2018-02-07T08:35:03.530Z,958.68
2018-02-07T08:36:03.517Z,958.75
2018-02-07T08:37:03.505Z,958.77
2018-02-07T08:38:03.495Z,959.03
2018-02-07T08:39:03.491Z,959.15
2018-02-07T08:40:03.472Z,959.15
2018-02-07T08:41:03.487Z,959.28
2018-02-07T08:42:03.520Z,959.32
2018-02-07T08:43:03.444Z,959.22
2018-02-07T08:44:03.437Z,959.01
2018-02-07T08:45:03.423Z,959.06
2018-02-07T08:46:03.414Z,959.02
2018-02-07T08:47:03.407Z,959.11
2018-02-07T08:48:03.398Z,959.21
2018-02-07T08:49:03.393Z,959.15
2018-02-07T08:50:03.385Z,959.35
2018-02-07T08:51:03.381Z,959.35
2018-02-07T08:52:03.371Z,959.08
2018-02-07T08:53:03.365Z,959.16
2018-02-07T08:54:03.361Z,959.22
2018-02-07T08:55:03.355Z,959.26
2018-02-07T08:56:03.349Z,959.34
2018-02-07T08:57:03.349Z,959.32
2018-02-07T08:58:03.347Z,959.47
2018-02-07T08:59:03.332Z,959.33
2018-02-07T09:00:03.344Z,959.33
2018-02-07T09:01:03.326Z,959.48
2018-02-07T09:02:03.319Z,959.42
2018-02-07T09:03:03.324Z,959.31
2018-02-07T09:04:03.314Z,959.40
2018-02-07T09:05:03.308Z,959.45
2018-02-07T09:06:03.309Z,959.50
2018-02-07T09:07:03.306Z,959.61
2018-02-07T09:08:03.306Z,959.62
2018-02-07T09:09:03.301Z,959.61
2018-02-07T09:10:03.303Z,959.70
2018-02-07T09:11:03.298Z,959.69
2018-02-07T09:12:03.301Z,959.71
2018-02-07T09:13:03.299Z,959.72
2018-02-07T09:14:03.298Z,959.79
2018-02-07T09:15:03.298Z,959.77
2018-02-07T09:16:03.304Z,959.81
2018-02-07T09:17:03.303Z,959.74
2018-02-07T09:18:03.301Z,959.75
2018-02-07T09:19:03.308Z,959.82
2018-02-07T09:20:03.305Z,959.80
2018-02-07T09:21:03.309Z,959.82
2018-02-07T09:22:03.308Z,959.84
2018-02-07T09:23:03.313Z,959.87
2018-02-07T09:24:03.322Z,959.92
2018-02-07T09:25:03.316Z,959.95
2018-02-07T09:26:03.324Z,960.00
2018-02-07T09:27:03.333Z,960.02
2018-02-07T09:28:03.340Z,960.04
2018-02-07T09:29:03.336Z,960.08
2018-02-07T09:30:03.341Z,960.08
2018-02-07T09:31:03.349Z,960.09
2018-02-07T09:32:03.349Z,960.07
2018-02-07T09:33:03.358Z,960.10
2018-02-07T09:34:03.360Z,960.10
2018-02-07T09:35:03.368Z,960.11
2018-02-07T09:36:03.371Z,960.08
2018-02-07T09:37:03.378Z,960.03
2018-02-07T09:38:03.389Z,960.02
2018-02-07T09:39:03.391Z,960.01
2018-02-07T09:40:03.396Z,960.10
2018-02-07T09:41:03.407Z,960.13
2018-02-07T09:42:03.414Z,960.14
2018-02-07T09:43:03.422Z,960.16
2018-02-07T09:44:03.421Z,960.17
2018-02-07T09:45:03.431Z,960.14
2018-02-07T09:46:03.439Z,960.18
2018-02-07T09:47:03.450Z,960.13
2018-02-07T09:48:03.447Z,960.10
2018-02-07T09:49:03.455Z,960.09
2018-02-07T09:50:03.464Z,960.08
2018-02-07T09:51:03.469Z,960.01
2018-02-07T09:52:03.473Z,959.94
2018-02-07T09:53:03.482Z,959.94
2018-02-07T09:54:03.510Z,959.88
2018-02-07T09:55:03.498Z,959.82
2018-02-07T09:56:03.500Z,959.96
2018-02-07T09:57:03.507Z,959.97
2018-02-07T09:58:03.513Z,959.96
2018-02-07T09:59:03.521Z,959.97
2018-02-07T10:00:03.527Z,959.99
2018-02-07T10:01:03.531Z,959.97
2018-02-07T10:02:03.538Z,960.05
2018-02-07T10:03:03.545Z,960.05
2018-02-07T10:04:03.551Z,960.05
2018-02-07T10:05:03.557Z,960.08
2018-02-07T10:06:03.563Z,960.06
2018-02-07T10:07:03.570Z,960.11
2018-02-07T10:08:03.581Z,960.07
2018-02-07T10:09:03.584Z,960.09
2018-02-07T10:10:03.591Z,960.05
2018-02-07T10:11:03.600Z,960.11
2018-02-07T10:12:03.606Z,960.15
2018-02-07T10:13:03.615Z,960.11
2018-02-07T10:14:03.620Z,960.14
2018-02-07T10:15:03.628Z,960.17
2018-02-07T10:16:03.635Z,960.15
2018-02-07T10:17:03.651Z,960.29
2018-02-07T10:18:03.651Z,960.28
2018-02-07T10:19:03.657Z,960.30
2018-02-07T10:20:03.666Z,960.35
2018-02-07T10:21:03.675Z,960.32
2018-02-07T10:22:03.683Z,960.31
2018-02-07T10:23:03.690Z,960.28
2018-02-07T10:24:03.700Z,960.26
2018-02-07T10:25:03.725Z,960.29
2018-02-07T10:26:03.720Z,960.26
2018-02-07T10:27:03.721Z,960.26
2018-02-07T10:28:03.736Z,960.21
2018-02-07T10:29:03.744Z,960.22
2018-02-07T10:30:03.758Z,960.25
2018-02-07T10:31:03.756Z,960.27
2018-02-07T10:32:03.766Z,960.21
2018-02-07T10:33:03.774Z,960.22
2018-02-07T10:34:03.785Z,960.25
2018-02-07T10:35:03.789Z,960.20
2018-02-07T10:36:03.801Z,960.13
2018-02-07T10:37:03.811Z,960.14
2018-02-07T10:38:03.821Z,960.17
2018-02-07T10:39:03.825Z,960.14
2018-02-07T10:40:03.830Z,960.06
2018-02-07T10:41:03.843Z,960.08
2018-02-07T10:42:03.852Z,959.99
2018-02-07T10:43:03.861Z,959.85
2018-02-07T10:44:03.865Z,959.77
2018-02-07T10:45:03.874Z,959.77
2018-02-07T10:46:03.922Z,959.73
2018-02-07T10:47:03.894Z,959.72
2018-02-07T10:48:03.900Z,959.69
2018-02-07T10:49:03.912Z,959.66
2018-02-07T10:50:03.917Z,959.64
2018-02-07T10:51:03.924Z,959.64
2018-02-07T10:52:03.935Z,959.61
2018-02-07T10:53:03.939Z,959.58
2018-02-07T10:54:03.946Z,959.55
2018-02-07T10:55:03.952Z,959.58
2018-02-07T10:56:03.959Z,959.57
2018-02-07T10:57:03.965Z,959.58
2018-02-07T10:58:03.971Z,959.54
2018-02-07T10:59:03.978Z,959.56
2018-02-07T11:00:03.980Z,959.51
2018-02-07T11:01:03.984Z,959.53
2018-02-07T11:02:03.989Z,959.49
2018-02-07T11:03:03.991Z,959.47
2018-02-07T11:04:03.995Z,959.52
2018-02-07T11:05:03.999Z,959.49
2018-02-07T11:06:04.004Z,959.49
2018-02-07T11:07:04.012Z,959.42
2018-02-07T11:08:04.015Z,959.42
2018-02-07T11:09:04.011Z,959.42
2018-02-07T11:10:04.009Z,959.31
2018-02-07T11:11:04.010Z,959.35
2018-02-07T11:12:04.010Z,959.32
2018-02-07T11:13:04.019Z,959.33
2018-02-07T11:14:04.011Z,959.33
2018-02-07T11:15:04.013Z,959.28
2018-02-07T11:16:04.020Z,959.29
2018-02-07T11:17:04.014Z,959.26
2018-02-07T11:18:04.014Z,959.31
2018-02-07T11:19:04.011Z,959.29
2018-02-07T11:20:04.009Z,959.29
2018-02-07T11:21:04.010Z,959.27
2018-02-07T11:22:04.009Z,959.29
2018-02-07T11:23:04.018Z,959.25
2018-02-07T11:24:04.060Z,959.25
2018-02-07T11:25:04.010Z,959.25
2018-02-07T11:26:04.015Z,959.26
2018-02-07T11:27:04.003Z,959.25
2018-02-07T11:28:04.001Z,959.21
2018-02-07T11:29:03.997Z,959.19
2018-02-07T11:30:03.996Z,959.20
2018-02-07T11:31:03.995Z,959.19
2018-02-07T11:32:03.992Z,959.18
2018-02-07T11:33:03.991Z,959.16
2018-02-07T11:34:03.986Z,959.14
2018-02-07T11:35:03.987Z,959.14
2018-02-07T11:36:03.982Z,959.19
2018-02-07T11:37:03.981Z,959.16
2018-02-07T11:38:04.413Z,959.12
2018-02-07T11:39:03.973Z,959.14
2018-02-07T11:40:03.971Z,959.12
2018-02-07T11:41:03.967Z,959.10
2018-02-07T11:42:03.967Z,959.12
2018-02-07T11:43:03.961Z,959.05
2018-02-07T11:44:03.961Z,959.02
2018-02-07T11:45:03.958Z,959.00
2018-02-07T11:46:03.954Z,959.06
2018-02-07T11:47:03.952Z,959.02
2018-02-07T11:48:03.948Z,959.03
2018-02-07T11:49:03.945Z,959.03
2018-02-07T11:50:03.943Z,958.99
2018-02-07T11:51:03.936Z,959.04
2018-02-07T11:52:04.167Z,959.00
2018-02-07T11:53:03.974Z,958.99
2018-02-07T11:54:03.928Z,959.00
2018-02-07T11:55:03.924Z,959.04
2018-02-07T11:56:03.960Z,959.02
2018-02-07T11:57:03.914Z,959.01
2018-02-07T11:58:03.994Z,959.01
2018-02-07T11:59:03.968Z,959.00
2018-02-07T12:00:03.905Z,959.03
2018-02-07T12:01:03.903Z,959.02
2018-02-07T12:02:04.179Z,958.97
2018-02-07T12:03:03.898Z,959.00
2018-02-07T12:04:03.890Z,958.99
2018-02-07T12:05:03.895Z,959.01
2018-02-07T12:06:03.883Z,958.97
2018-02-07T12:07:03.880Z,958.99
2018-02-07T12:08:03.876Z,958.99
2018-02-07T12:09:03.874Z,959.00
2018-02-07T12:10:03.867Z,958.95
2018-02-07T12:11:03.878Z,958.94
2018-02-07T12:12:03.858Z,958.96
2018-02-07T12:13:03.854Z,958.96
2018-02-07T12:14:03.850Z,958.94
2018-02-07T12:15:03.848Z,958.94
2018-02-07T12:16:03.851Z,958.92
2018-02-07T12:17:03.906Z,958.89
2018-02-07T12:18:04.235Z,958.87
2018-02-07T12:19:03.830Z,958.88
2018-02-07T12:20:03.824Z,958.90
2018-02-07T12:21:03.855Z,958.82
2018-02-07T12:22:03.867Z,958.81
2018-02-07T12:23:03.816Z,958.80
2018-02-07T12:24:03.833Z,958.76
2018-02-07T12:25:04.015Z,958.73
2018-02-07T12:26:03.802Z,958.77
2018-02-07T12:27:03.798Z,958.71
2018-02-07T12:28:03.799Z,958.73